Time;durP1;ratioP1;P1;durP2;ratioP2;P2;SDS_P1;SDS_P2;PMS_P1;PMS_P2;Temp;Humidity;BMP_temperature;BMP_pressure;BME280_temperature;BME280_humidity;BME280_pressure;Samples;Min_cycle;Max_cycle;Signal;HPM_P1;HPM_P2
2024/02/27 00:01:58;;;;;;;10.33;8.10;;;;;;;;;;5128524;27;20473;-72
2024/02/27 00:04:25;;;;;;;4.37;4.17;;;;;;;;;;5147363;27;20506;-73
2024/02/27 00:06:54;;;;;;;8.77;7.70;;;;;;;;;;5132610;27;20905;-73
2024/02/27 00:09:21;;;;;;;9.33;8.43;;;;;;;;;;5150604;27;20939;-72
2024/02/27 00:11:48;;;;;;;3.60;3.50;;;;;;;;;;5151127;27;20594;-73
2024/02/27 00:14:14;;;;;;;4.20;4.10;;;;;;;;;;5140741;27;20445;-73
2024/02/27 00:16:41;;;;;;;22.50;15.67;;;;;;;;;;5150749;27;20879;-73
2024/02/27 00:19:08;;;;;;;5.97;5.63;;;;;;;;;;5142516;27;20488;-73
2024/02/27 00:21:35;;;;;;;10.83;9.80;;;;;;;;;;5142259;27;20506;-73
2024/02/27 00:24:02;;;;;;;5.17;4.97;;;;;;;;;;5142022;27;20805;-73
2024/02/27 00:26:28;;;;;;;11.30;10.13;;;;;;;;;;5153758;27;20484;-72
2024/02/27 00:28:55;;;;;;;8.20;7.47;;;;;;;;;;5141553;27;20539;-73
2024/02/27 00:31:21;;;;;;;9.63;5.70;;;;;;;;;;5153313;27;20454;-71
2024/02/27 00:33:47;;;;;;;6.77;6.40;;;;;;;;;;5144996;27;20532;-73
2024/02/27 00:36:14;;;;;;;9.23;8.33;;;;;;;;;;5138460;27;21045;-74
2024/02/27 00:38:42;;;;;;;8.00;7.17;;;;;;;;;;5138853;27;20511;-73
2024/02/27 00:41:08;;;;;;;3.20;3.10;;;;;;;;;;5146609;27;20524;-72
2024/02/27 00:43:35;;;;;;;4.20;3.60;;;;;;;;;;5147370;27;20442;-75
2024/02/27 00:46:01;;;;;;;4.40;4.20;;;;;;;;;;5147887;27;20585;-73
2024/02/27 00:48:27;;;;;;;11.80;9.17;;;;;;;;;;5141751;27;21273;-74
2024/02/27 00:50:54;;;;;;;4.90;4.70;;;;;;;;;;5140124;27;20525;-72
2024/02/27 00:53:21;;;;;;;5.47;5.07;;;;;;;;;;5139358;27;20434;-73
2024/02/27 00:55:49;;;;;;;5.00;4.80;;;;;;;;;;5142178;27;20456;-72
2024/02/27 00:58:15;;;;;;;5.87;5.47;;;;;;;;;;5127152;27;20509;-74
2024/02/27 01:00:42;;;;;;;5.73;5.43;;;;;;;;;;5138327;27;20557;-73
2024/02/27 01:03:09;;;;;;;4.37;4.17;;;;;;;;;;5138043;27;21123;-70
2024/02/27 01:05:35;;;;;;;7.50;6.93;;;;;;;;;;5153468;27;20445;-73
2024/02/27 01:08:01;;;;;;;5.53;4.90;;;;;;;;;;5144645;27;20531;-74
2024/02/27 01:10:28;;;;;;;7.80;7.20;;;;;;;;;;5143423;27;20467;-74
2024/02/27 01:12:56;;;;;;;4.80;4.40;;;;;;;;;;5143435;27;20477;-74
2024/02/27 01:15:22;;;;;;;9.10;8.30;;;;;;;;;;5136245;27;20981;-74
2024/02/27 01:17:48;;;;;;;4.83;4.53;;;;;;;;;;5137976;27;20465;-72
2024/02/27 01:20:15;;;;;;;7.97;6.50;;;;;;;;;;5140893;27;20480;-71
2024/02/27 01:22:41;;;;;;;9.03;6.93;;;;;;;;;;5139258;27;20464;-72
2024/02/27 01:25:12;;;;;;;7.57;6.93;;;;;;;;;;5143903;27;20536;-73
2024/02/27 01:27:38;;;;;;;4.73;4.33;;;;;;;;;;5140269;27;20498;-73
2024/02/27 01:30:07;;;;;;;16.20;11.73;;;;;;;;;;5138085;27;20525;-72
2024/02/27 01:32:33;;;;;;;10.33;6.67;;;;;;;;;;5130800;27;20543;-72
2024/02/27 01:34:59;;;;;;;6.53;5.93;;;;;;;;;;5137982;27;20480;-73
2024/02/27 01:37:26;;;;;;;8.27;7.70;;;;;;;;;;5135990;27;20526;-73
2024/02/27 01:39:52;;;;;;;5.27;4.87;;;;;;;;;;5135389;27;20509;-72
2024/02/27 01:42:20;;;;;;;17.57;12.60;;;;;;;;;;5141990;27;20955;-72
2024/02/27 01:44:48;;;;;;;7.33;6.73;;;;;;;;;;5140606;27;20513;-72
2024/02/27 01:47:17;;;;;;;11.30;8.73;;;;;;;;;;5144508;27;20559;-73
2024/02/27 01:49:43;;;;;;;17.47;9.93;;;;;;;;;;5146793;27;20508;-73
2024/02/27 01:52:10;;;;;;;16.80;11.87;;;;;;;;;;5141288;27;20991;-73
2024/02/27 01:54:37;;;;;;;5.50;5.10;;;;;;;;;;5139404;27;20927;-73
2024/02/27 01:57:03;;;;;;;8.77;7.83;;;;;;;;;;5125969;27;21172;-73
2024/02/27 01:59:29;;;;;;;7.60;6.20;;;;;;;;;;5143707;27;20946;-73
2024/02/27 02:01:56;;;;;;;10.73;5.93;;;;;;;;;;5136918;27;20876;-73
2024/02/27 02:04:26;;;;;;;8.70;3.30;;;;;;;;;;5144605;27;20443;-73
2024/02/27 02:06:52;;;;;;;3.70;3.43;;;;;;;;;;5138284;27;20475;-72
2024/02/27 02:09:19;;;;;;;12.40;6.77;;;;;;;;;;5145013;27;20452;-73
2024/02/27 02:11:45;;;;;;;5.47;3.87;;;;;;;;;;5139588;27;20490;-73
2024/02/27 02:14:12;;;;;;;7.97;7.23;;;;;;;;;;5137758;27;20500;-73
2024/02/27 02:16:38;;;;;;;3.53;3.30;;;;;;;;;;5129822;28;20552;-73
2024/02/27 02:19:05;;;;;;;4.33;3.97;;;;;;;;;;5130730;27;20505;-74
2024/02/27 02:21:33;;;;;;;4.97;3.57;;;;;;;;;;5136839;27;20527;-73
2024/02/27 02:24:00;;;;;;;11.20;6.83;;;;;;;;;;5143390;27;20457;-73
2024/02/27 02:26:28;;;;;;;6.47;5.70;;;;;;;;;;5143937;27;20576;-73
2024/02/27 02:28:55;;;;;;;5.07;4.60;;;;;;;;;;5138305;27;20453;-74
2024/02/27 02:31:21;;;;;;;11.90;7.83;;;;;;;;;;5142991;27;20530;-74
2024/02/27 02:33:47;;;;;;;9.80;5.23;;;;;;;;;;5142754;27;20479;-74
2024/02/27 02:36:14;;;;;;;5.20;4.70;;;;;;;;;;5135289;27;20474;-74
2024/02/27 02:38:42;;;;;;;3.00;2.90;;;;;;;;;;5135809;27;20552;-72
2024/02/27 02:41:08;;;;;;;3.93;3.63;;;;;;;;;;5140306;27;20453;-73
2024/02/27 02:43:34;;;;;;;10.17;7.57;;;;;;;;;;5137707;27;20461;-74
2024/02/27 02:46:01;;;;;;;4.50;4.30;;;;;;;;;;5154830;27;20488;-74
2024/02/27 02:48:27;;;;;;;3.50;3.30;;;;;;;;;;5140626;27;20504;-74
2024/02/27 02:50:53;;;;;;;2.20;2.10;;;;;;;;;;5148621;27;20495;-73
2024/02/27 02:53:20;;;;;;;5.77;5.17;;;;;;;;;;5146098;27;20492;-74
2024/02/27 02:55:47;;;;;;;8.63;5.13;;;;;;;;;;5146981;27;20472;-74
2024/02/27 02:58:14;;;;;;;2.97;2.77;;;;;;;;;;5133441;27;20474;-75
2024/02/27 03:00:40;;;;;;;2.30;2.10;;;;;;;;;;5146187;27;20453;-74
2024/02/27 03:03:07;;;;;;;17.10;10.20;;;;;;;;;;5145054;27;20451;-74
2024/02/27 03:05:33;;;;;;;3.60;3.30;;;;;;;;;;5146349;27;20930;-74
2024/02/27 03:07:59;;;;;;;3.17;2.90;;;;;;;;;;5143379;27;20508;-73
2024/02/27 03:10:26;;;;;;;2.40;2.30;;;;;;;;;;5143918;27;20457;-74
2024/02/27 03:12:54;;;;;;;3.63;3.30;;;;;;;;;;5153297;27;20504;-74
2024/02/27 03:15:20;;;;;;;3.70;3.50;;;;;;;;;;5141351;27;20480;-74
2024/02/27 03:17:46;;;;;;;10.73;6.20;;;;;;;;;;5139135;27;20472;-74
2024/02/27 03:20:13;;;;;;;16.87;11.57;;;;;;;;;;5151906;27;20481;-73
2024/02/27 03:22:39;;;;;;;21.50;14.63;;;;;;;;;;5148639;27;20579;-74
2024/02/27 03:25:06;;;;;;;4.77;4.53;;;;;;;;;;5147119;27;20552;-73
2024/02/27 03:27:32;;;;;;;6.93;4.97;;;;;;;;;;5145316;27;20507;-72
2024/02/27 03:30:00;;;;;;;4.40;3.67;;;;;;;;;;5146724;27;20505;-72
2024/02/27 03:32:27;;;;;;;2.93;2.83;;;;;;;;;;5138287;27;20824;-72
2024/02/27 03:34:53;;;;;;;19.10;9.57;;;;;;;;;;5148843;27;21229;-74
2024/02/27 03:37:20;;;;;;;2.03;1.93;;;;;;;;;;5145638;27;20520;-72
2024/02/27 03:39:46;;;;;;;5.17;4.67;;;;;;;;;;5130901;27;20517;-71
2024/02/27 03:42:12;;;;;;;1.77;1.77;;;;;;;;;;5143661;27;20478;-73
2024/02/27 03:44:39;;;;;;;11.83;6.93;;;;;;;;;;5148259;27;20472;-73
2024/02/27 03:47:06;;;;;;;7.90;4.17;;;;;;;;;;5130656;27;20596;-72
2024/02/27 03:49:33;;;;;;;5.60;3.80;;;;;;;;;;5141844;27;20525;-72
2024/02/27 03:51:59;;;;;;;11.43;7.90;;;;;;;;;;5143131;27;20480;-73
2024/02/27 03:54:26;;;;;;;15.63;8.50;;;;;;;;;;5144452;27;20509;-72
2024/02/27 03:56:52;;;;;;;7.93;4.70;;;;;;;;;;5153649;27;20472;-71
2024/02/27 03:59:18;;;;;;;9.13;8.43;;;;;;;;;;5136059;27;20523;-73
2024/02/27 04:01:45;;;;;;;14.40;11.70;;;;;;;;;;5135650;27;20521;-72
2024/02/27 04:04:12;;;;;;;5.33;4.83;;;;;;;;;;5144662;27;20472;-72
2024/02/27 04:06:39;;;;;;;5.77;4.67;;;;;;;;;;5138288;27;21256;-73
2024/02/27 04:09:05;;;;;;;25.20;13.07;;;;;;;;;;5138181;27;20480;-70
2024/02/27 04:11:32;;;;;;;6.03;5.53;;;;;;;;;;5153973;27;20460;-73
2024/02/27 04:13:58;;;;;;;4.27;3.50;;;;;;;;;;5151501;27;20483;-73
2024/02/27 04:16:25;;;;;;;3.73;3.53;;;;;;;;;;5132267;27;20971;-73
2024/02/27 04:18:52;;;;;;;14.37;9.20;;;;;;;;;;5132083;27;20505;-74
2024/02/27 04:21:20;;;;;;;6.83;5.53;;;;;;;;;;5147755;27;20661;-74
2024/02/27 04:23:46;;;;;;;4.80;3.77;;;;;;;;;;5147090;27;20534;-74
2024/02/27 04:26:13;;;;;;;19.60;12.97;;;;;;;;;;5153427;27;20475;-74
2024/02/27 04:28:39;;;;;;;10.90;6.83;;;;;;;;;;5138040;27;20469;-73
2024/02/27 04:31:06;;;;;;;5.03;4.47;;;;;;;;;;5148266;27;20512;-72
2024/02/27 04:33:32;;;;;;;2.53;2.33;;;;;;;;;;5141558;27;20877;-73
2024/02/27 04:35:58;;;;;;;17.10;11.00;;;;;;;;;;5141609;27;20516;-74
2024/02/27 04:38:26;;;;;;;7.10;6.50;;;;;;;;;;5143872;27;20523;-72
2024/02/27 04:40:52;;;;;;;12.17;10.13;;;;;;;;;;5137259;27;20521;-74
2024/02/27 04:43:19;;;;;;;21.30;11.10;;;;;;;;;;5141089;27;20481;-74
2024/02/27 04:45:45;;;;;;;1.93;1.83;;;;;;;;;;5136241;27;21108;-72
2024/02/27 04:48:11;;;;;;;2.23;2.13;;;;;;;;;;5138760;27;20516;-72
2024/02/27 04:50:38;;;;;;;13.07;9.00;;;;;;;;;;5138743;27;20544;-69
2024/02/27 04:53:04;;;;;;;12.17;6.97;;;;;;;;;;5132364;27;20445;-70
2024/02/27 04:55:32;;;;;;;5.80;5.30;;;;;;;;;;5150032;27;20507;-71
2024/02/27 04:57:58;;;;;;;5.70;5.40;;;;;;;;;;5149453;27;20499;-73
2024/02/27 05:00:25;;;;;;;18.77;10.07;;;;;;;;;;5131821;27;20476;-73
2024/02/27 05:02:51;;;;;;;27.87;16.63;;;;;;;;;;5138050;27;20439;-72
2024/02/27 05:05:18;;;;;;;15.13;8.77;;;;;;;;;;5143397;27;20997;-71
2024/02/27 05:07:44;;;;;;;16.90;10.33;;;;;;;;;;5128960;27;20508;-72
2024/02/27 05:10:11;;;;;;;5.87;5.40;;;;;;;;;;5146150;27;20460;-74
2024/02/27 05:12:38;;;;;;;6.50;5.90;;;;;;;;;;5142971;27;20449;-73
2024/02/27 05:15:07;;;;;;;11.50;9.17;;;;;;;;;;5132674;27;20476;-71
2024/02/27 05:17:33;;;;;;;3.80;3.60;;;;;;;;;;5127488;27;20469;-73
2024/02/27 05:19:59;;;;;;;21.57;11.20;;;;;;;;;;5142603;27;20484;-73
2024/02/27 05:22:26;;;;;;;6.53;4.60;;;;;;;;;;5142674;27;20481;-72
2024/02/27 05:24:52;;;;;;;10.60;7.10;;;;;;;;;;5141940;27;21001;-72
2024/02/27 05:27:19;;;;;;;26.83;12.10;;;;;;;;;;5138029;27;20517;-71
2024/02/27 05:29:47;;;;;;;14.93;9.90;;;;;;;;;;5141581;27;20457;-74
2024/02/27 05:32:13;;;;;;;9.00;7.63;;;;;;;;;;5152465;27;20542;-73
2024/02/27 05:34:39;;;;;;;25.50;15.90;;;;;;;;;;5149206;27;20971;-72
2024/02/27 05:37:06;;;;;;;4.63;3.17;;;;;;;;;;5140212;27;20456;-72
2024/02/27 05:39:32;;;;;;;9.00;6.70;;;;;;;;;;5130324;27;20523;-72
2024/02/27 05:41:59;;;;;;;2.77;2.67;;;;;;;;;;5141749;27;20487;-72
2024/02/27 05:44:25;;;;;;;5.60;3.77;;;;;;;;;;5139936;27;20454;-72
2024/02/27 05:46:53;;;;;;;5.60;5.30;;;;;;;;;;5141252;27;20460;-71
2024/02/27 05:49:20;;;;;;;15.43;9.60;;;;;;;;;;5144973;27;20587;-73
2024/02/27 05:51:46;;;;;;;11.73;8.30;;;;;;;;;;5142935;27;20481;-73
2024/02/27 05:54:12;;;;;;;4.83;4.40;;;;;;;;;;5139718;27;20453;-77
2024/02/27 05:56:39;;;;;;;10.47;6.50;;;;;;;;;;5137768;27;20753;-78
2024/02/27 05:59:05;;;;;;;14.03;10.03;;;;;;;;;;5143488;27;20536;-74
2024/02/27 06:01:32;;;;;;;17.37;10.10;;;;;;;;;;5139971;27;20457;-72
2024/02/27 06:03:59;;;;;;;17.40;9.07;;;;;;;;;;5138311;27;20446;-73
2024/02/27 06:06:26;;;;;;;2.37;2.30;;;;;;;;;;5141451;27;21054;-76
2024/02/27 06:08:52;;;;;;;2.70;2.50;;;;;;;;;;5139483;27;20592;-72
2024/02/27 06:11:19;;;;;;;3.77;3.57;;;;;;;;;;5139841;27;20506;-75
2024/02/27 06:13:45;;;;;;;2.27;2.20;;;;;;;;;;5138249;27;20491;-71
2024/02/27 06:16:12;;;;;;;4.30;3.90;;;;;;;;;;5141679;27;20512;-74
2024/02/27 06:18:42;;;;;;;1.53;1.53;;;;;;;;;;5152844;27;20447;-72
2024/02/27 06:23:54;;;;;;;2.20;2.10;;;;;;;;;;5147037;27;20440;-74
2024/02/27 06:26:20;;;;;;;13.23;9.10;;;;;;;;;;5139158;27;20999;-74
2024/02/27 06:28:47;;;;;;;11.80;6.80;;;;;;;;;;5146560;27;20484;-73
2024/02/27 06:31:13;;;;;;;8.63;6.07;;;;;;;;;;5150836;27;20566;-74
2024/02/27 06:33:40;;;;;;;6.80;6.00;;;;;;;;;;5143031;27;20436;-74
2024/02/27 06:36:07;;;;;;;3.90;3.80;;;;;;;;;;5144101;27;20471;-74
2024/02/27 06:38:35;;;;;;;11.20;6.97;;;;;;;;;;5150168;27;20551;-71
2024/02/27 06:41:01;;;;;;;4.47;4.27;;;;;;;;;;5154872;27;20992;-75
2024/02/27 06:43:27;;;;;;;4.10;3.70;;;;;;;;;;5138809;27;20477;-74
2024/02/27 06:45:54;;;;;;;5.67;5.27;;;;;;;;;;5132590;27;20543;-74
2024/02/27 06:48:21;;;;;;;4.63;4.30;;;;;;;;;;5143216;27;20484;-73
2024/02/27 06:50:49;;;;;;;2.77;2.67;;;;;;;;;;5154146;27;20498;-73
2024/02/27 06:53:16;;;;;;;7.17;6.40;;;;;;;;;;5151138;27;20464;-74
2024/02/27 06:55:45;;;;;;;3.57;3.40;;;;;;;;;;5148600;27;20547;-73
2024/02/27 06:58:12;;;;;;;6.33;5.93;;;;;;;;;;5146172;27;20500;-72
2024/02/27 07:00:38;;;;;;;2.77;2.67;;;;;;;;;;5150972;27;21091;-73
2024/02/27 07:03:04;;;;;;;13.03;8.20;;;;;;;;;;5153946;27;20460;-72
2024/02/27 07:05:31;;;;;;;8.50;7.97;;;;;;;;;;5142345;27;20479;-73
2024/02/27 07:07:57;;;;;;;15.70;11.10;;;;;;;;;;5144457;27;20472;-73
2024/02/27 07:10:24;;;;;;;12.77;11.57;;;;;;;;;;5151322;27;20452;-73
2024/02/27 07:12:52;;;;;;;17.43;14.90;;;;;;;;;;5138156;27;20607;-73
2024/02/27 07:15:18;;;;;;;9.27;8.43;;;;;;;;;;5137194;27;20481;-72
2024/02/27 07:17:44;;;;;;;10.60;9.87;;;;;;;;;;5131397;27;20477;-73
2024/02/27 07:20:12;;;;;;;16.20;13.13;;;;;;;;;;5137560;27;20465;-74
2024/02/27 07:22:38;;;;;;;25.23;14.97;;;;;;;;;;5131896;27;20449;-76
2024/02/27 07:25:05;;;;;;;5.93;5.63;;;;;;;;;;5136908;27;20456;-75
2024/02/27 07:27:32;;;;;;;11.97;8.30;;;;;;;;;;5138341;27;20477;-78
2024/02/27 07:29:59;;;;;;;18.20;9.77;;;;;;;;;;5132970;27;20453;-78
2024/02/27 07:32:26;;;;;;;10.63;8.60;;;;;;;;;;5151352;27;20517;-75
2024/02/27 07:34:52;;;;;;;4.93;4.50;;;;;;;;;;5150048;27;20495;-72
2024/02/27 07:37:18;;;;;;;8.07;6.50;;;;;;;;;;5147277;27;20485;-76
2024/02/27 07:39:45;;;;;;;4.13;3.83;;;;;;;;;;5148379;27;20507;-79
2024/02/27 07:42:12;;;;;;;9.37;7.37;;;;;;;;;;5152045;27;20452;-78
2024/02/27 07:44:38;;;;;;;3.23;3.13;;;;;;;;;;5143190;27;20540;-78
2024/02/27 07:47:06;;;;;;;9.00;7.63;;;;;;;;;;5149085;27;21008;-76
2024/02/27 07:49:33;;;;;;;18.43;8.47;;;;;;;;;;5148081;27;20503;-77
2024/02/27 07:51:59;;;;;;;15.00;9.63;;;;;;;;;;5136697;27;20469;-77
2024/02/27 07:54:25;;;;;;;13.97;8.53;;;;;;;;;;5152880;27;20491;-74
2024/02/27 07:56:52;;;;;;;13.33;11.57;;;;;;;;;;5143808;27;20445;-78
2024/02/27 07:59:19;;;;;;;7.57;6.97;;;;;;;;;;5140178;27;20437;-75
2024/02/27 08:01:45;;;;;;;16.23;9.97;;;;;;;;;;5153620;27;20480;-74
2024/02/27 08:04:13;;;;;;;8.77;7.20;;;;;;;;;;5155050;27;21361;-76
2024/02/27 08:06:39;;;;;;;4.90;4.50;;;;;;;;;;5149208;27;20456;-77
2024/02/27 08:09:06;;;;;;;12.00;9.30;;;;;;;;;;5145832;27;20477;-77
2024/02/27 08:11:32;;;;;;;9.70;7.27;;;;;;;;;;5145879;27;20456;-73
2024/02/27 08:14:00;;;;;;;4.23;4.00;;;;;;;;;;5138153;27;20452;-76
2024/02/27 08:16:26;;;;;;;3.37;3.17;;;;;;;;;;5146925;27;20453;-75
2024/02/27 08:18:53;;;;;;;4.50;4.20;;;;;;;;;;5148542;27;20465;-74
2024/02/27 08:21:20;;;;;;;2.87;2.63;;;;;;;;;;5143389;27;20520;-76
2024/02/27 08:23:47;;;;;;;3.83;3.63;;;;;;;;;;5139768;27;20535;-75
2024/02/27 08:26:13;;;;;;;9.60;6.43;;;;;;;;;;5156731;27;21010;-78
2024/02/27 08:28:39;;;;;;;17.00;9.83;;;;;;;;;;5133142;27;20507;-76
2024/02/27 08:31:06;;;;;;;14.40;10.93;;;;;;;;;;5151234;27;20476;-75
2024/02/27 08:33:32;;;;;;;7.93;7.10;;;;;;;;;;5148958;27;20469;-76
2024/02/27 08:35:59;;;;;;;2.93;2.83;;;;;;;;;;5145080;27;20460;-76
2024/02/27 08:38:26;;;;;;;4.80;4.33;;;;;;;;;;5139662;27;20516;-78
2024/02/27 08:40:53;;;;;;;3.97;3.77;;;;;;;;;;5145854;27;20552;-75
2024/02/27 08:43:19;;;;;;;9.43;8.30;;;;;;;;;;5150223;27;20456;-75
2024/02/27 08:45:46;;;;;;;4.43;4.20;;;;;;;;;;5146810;27;21125;-74
2024/02/27 08:48:12;;;;;;;16.17;7.60;;;;;;;;;;5142056;27;20478;-73
2024/02/27 08:50:38;;;;;;;6.80;6.37;;;;;;;;;;5139900;27;20485;-76
2024/02/27 08:53:05;;;;;;;7.17;6.60;;;;;;;;;;5143330;27;20472;-77
2024/02/27 08:55:32;;;;;;;9.60;8.30;;;;;;;;;;5152721;27;20500;-75
2024/02/27 08:57:59;;;;;;;6.13;5.50;;;;;;;;;;5147071;27;20579;-73
2024/02/27 09:00:25;;;;;;;9.10;7.57;;;;;;;;;;5146009;27;20430;-75
2024/02/27 09:02:52;;;;;;;6.13;5.70;;;;;;;;;;5138982;27;20450;-76
2024/02/27 09:05:18;;;;;;;3.27;3.17;;;;;;;;;;5149232;27;20520;-79
2024/02/27 09:07:45;;;;;;;8.20;7.00;;;;;;;;;;5148868;27;20481;-79
2024/02/27 09:10:12;;;;;;;15.30;11.50;;;;;;;;;;5143502;27;20515;-79
2024/02/27 09:12:40;;;;;;;3.20;3.10;;;;;;;;;;5152240;27;20944;-78
2024/02/27 09:15:07;;;;;;;8.63;4.30;;;;;;;;;;5148436;27;20529;-77
2024/02/27 09:17:35;;;;;;;5.80;5.20;;;;;;;;;;5145059;27;20478;-79
2024/02/27 09:20:01;;;;;;;5.13;4.73;;;;;;;;;;5142436;27;20446;-77
2024/02/27 09:22:27;;;;;;;6.63;6.03;;;;;;;;;;5146731;27;21022;-76
2024/02/27 09:24:54;;;;;;;6.23;5.70;;;;;;;;;;5144580;27;20532;-75
2024/02/27 09:27:23;;;;;;;4.90;4.50;;;;;;;;;;5145712;27;20476;-77
2024/02/27 09:29:51;;;;;;;8.70;7.80;;;;;;;;;;5134908;27;20489;-77
2024/02/27 09:32:17;;;;;;;11.20;7.67;;;;;;;;;;5145694;27;20503;-76
2024/02/27 09:34:44;;;;;;;6.00;5.53;;;;;;;;;;5140332;27;20536;-79
2024/02/27 09:37:11;;;;;;;8.87;8.07;;;;;;;;;;5150931;27;20521;-78
2024/02/27 09:39:37;;;;;;;5.67;5.37;;;;;;;;;;5146073;27;20970;-74
2024/02/27 09:42:08;;;;;;;7.50;6.60;;;;;;;;;;5137904;27;20516;-78
2024/02/27 09:44:37;;;;;;;18.53;9.70;;;;;;;;;;5150873;27;20456;-79
2024/02/27 09:47:06;;;;;;;15.47;11.57;;;;;;;;;;5134957;27;21116;-76
2024/02/27 09:49:34;;;;;;;5.13;4.73;;;;;;;;;;5141678;27;20483;-78
2024/02/27 09:52:02;;;;;;;7.97;7.30;;;;;;;;;;5140459;27;20544;-78
2024/02/27 09:54:28;;;;;;;4.00;3.80;;;;;;;;;;5141736;27;20457;-78
2024/02/27 09:56:55;;;;;;;9.17;7.47;;;;;;;;;;5152377;27;20946;-77
2024/02/27 09:59:22;;;;;;;4.17;3.97;;;;;;;;;;5138724;27;20513;-74
2024/02/27 10:01:51;;;;;;;6.83;6.20;;;;;;;;;;5131955;27;20470;-77
2024/02/27 10:04:20;;;;;;;5.60;5.10;;;;;;;;;;5138434;27;20861;-77
2024/02/27 10:06:47;;;;;;;5.10;4.80;;;;;;;;;;5142936;27;20543;-75
2024/02/27 10:09:16;;;;;;;7.93;7.10;;;;;;;;;;5134334;27;20497;-80
2024/02/27 10:11:42;;;;;;;7.77;7.07;;;;;;;;;;5134558;27;20484;-79
2024/02/27 10:14:13;;;;;;;5.60;5.10;;;;;;;;;;5153979;27;21055;-79
2024/02/27 10:16:39;;;;;;;11.20;9.13;;;;;;;;;;5138257;27;20536;-74
2024/02/27 10:19:05;;;;;;;10.07;9.07;;;;;;;;;;5130263;27;20500;-76
2024/02/27 10:21:33;;;;;;;6.40;5.90;;;;;;;;;;5151230;27;20543;-75
2024/02/27 10:24:00;;;;;;;5.90;5.40;;;;;;;;;;5139790;27;20469;-78
2024/02/27 10:26:26;;;;;;;5.63;5.23;;;;;;;;;;5137825;27;20512;-75
2024/02/27 10:28:52;;;;;;;4.87;4.50;;;;;;;;;;5150840;27;20598;-77
2024/02/27 10:31:19;;;;;;;8.97;8.13;;;;;;;;;;5142158;27;20563;-76
2024/02/27 10:33:47;;;;;;;5.87;5.50;;;;;;;;;;5146358;27;20529;-71
2024/02/27 10:36:13;;;;;;;7.07;6.23;;;;;;;;;;5137631;27;20464;-78
2024/02/27 10:38:44;;;;;;;4.67;4.47;;;;;;;;;;5146484;27;20590;-78
2024/02/27 10:41:11;;;;;;;10.30;9.30;;;;;;;;;;5143548;27;20489;-74
2024/02/27 10:43:37;;;;;;;13.43;10.10;;;;;;;;;;5146824;27;20491;-77
2024/02/27 10:46:03;;;;;;;4.70;4.50;;;;;;;;;;5149448;27;20544;-77
2024/02/27 10:48:30;;;;;;;4.40;4.20;;;;;;;;;;5146765;27;20473;-78
2024/02/27 10:50:57;;;;;;;7.33;5.77;;;;;;;;;;5137190;27;20575;-77
2024/02/27 10:53:25;;;;;;;6.00;5.80;;;;;;;;;;5132082;27;21156;-74
2024/02/27 10:55:54;;;;;;;4.23;4.13;;;;;;;;;;5148596;27;20449;-76
2024/02/27 10:58:22;;;;;;;11.27;9.67;;;;;;;;;;5141168;27;20441;-75
2024/02/27 11:00:48;;;;;;;8.30;6.90;;;;;;;;;;5145307;27;20491;-74
2024/02/27 11:03:16;;;;;;;3.93;3.83;;;;;;;;;;5139827;27;20477;-75
2024/02/27 11:05:44;;;;;;;5.73;5.43;;;;;;;;;;5144637;27;20555;-74
2024/02/27 11:08:11;;;;;;;5.57;5.10;;;;;;;;;;5145108;27;20495;-77
2024/02/27 11:10:39;;;;;;;5.33;5.07;;;;;;;;;;5150518;27;20544;-77
2024/02/27 11:13:08;;;;;;;4.07;3.93;;;;;;;;;;5140843;27;20972;-77
2024/02/27 11:15:34;;;;;;;5.90;5.70;;;;;;;;;;5144881;27;20513;-74
2024/02/27 11:18:02;;;;;;;9.30;9.00;;;;;;;;;;5144148;27;20790;-77
2024/02/27 11:20:30;;;;;;;9.70;9.20;;;;;;;;;;5148003;27;20513;-77
2024/02/27 11:22:57;;;;;;;11.50;10.90;;;;;;;;;;5146939;27;20459;-77
2024/02/27 11:25:23;;;;;;;11.37;10.67;;;;;;;;;;5145106;27;20517;-72
2024/02/27 11:27:50;;;;;;;15.00;14.10;;;;;;;;;;5151498;27;20456;-72
2024/02/27 11:30:20;;;;;;;7.70;7.40;;;;;;;;;;5142000;27;20521;-77
2024/02/27 11:32:47;;;;;;;9.50;9.00;;;;;;;;;;5141907;27;20476;-75
2024/02/27 11:35:15;;;;;;;9.07;8.53;;;;;;;;;;5151666;27;20456;-78
2024/02/27 11:37:42;;;;;;;9.77;9.17;;;;;;;;;;5145193;27;20437;-75
2024/02/27 11:40:10;;;;;;;8.20;7.90;;;;;;;;;;5154155;27;20476;-78
2024/02/27 11:42:38;;;;;;;10.37;9.87;;;;;;;;;;5132197;27;20473;-77
2024/02/27 11:45:05;;;;;;;7.50;7.20;;;;;;;;;;5158942;27;20448;-77
2024/02/27 11:47:38;;;;;;;6.10;5.90;;;;;;;;;;5151283;27;20481;-76
2024/02/27 11:50:06;;;;;;;6.00;5.47;;;;;;;;;;5148577;27;20512;-76
2024/02/27 11:52:34;;;;;;;8.80;8.50;;;;;;;;;;5151413;27;20457;-75
2024/02/27 11:55:05;;;;;;;3.93;3.80;;;;;;;;;;5143476;27;20445;-75
2024/02/27 11:57:33;;;;;;;11.83;11.03;;;;;;;;;;5150434;27;20446;-78
2024/02/27 12:00:05;;;;;;;4.80;4.50;;;;;;;;;;5146636;27;20480;-78
2024/02/27 12:02:35;;;;;;;10.03;9.43;;;;;;;;;;5152340;27;20487;-75
2024/02/27 12:05:03;;;;;;;7.70;7.07;;;;;;;;;;5141680;27;20962;-75
2024/02/27 12:07:29;;;;;;;4.23;4.03;;;;;;;;;;5145973;27;20461;-77
2024/02/27 12:10:05;;;;;;;4.40;4.23;;;;;;;;;;5151488;27;20484;-73
2024/02/27 12:12:31;;;;;;;5.10;4.80;;;;;;;;;;5157127;27;20436;-77
2024/02/27 12:14:58;;;;;;;10.63;9.10;;;;;;;;;;5149258;27;20488;-78
2024/02/27 12:17:26;;;;;;;5.37;5.07;;;;;;;;;;5141400;27;20492;-77
2024/02/27 12:19:52;;;;;;;4.40;4.20;;;;;;;;;;5153434;27;20798;-77
2024/02/27 12:22:20;;;;;;;4.30;4.10;;;;;;;;;;5145228;27;20523;-73
2024/02/27 12:24:46;;;;;;;5.77;5.33;;;;;;;;;;5145349;27;20476;-76
2024/02/27 12:27:14;;;;;;;4.20;4.00;;;;;;;;;;5144526;27;20966;-75
2024/02/27 12:29:41;;;;;;;3.90;3.70;;;;;;;;;;5149679;27;20473;-77
2024/02/27 12:32:07;;;;;;;11.93;5.10;;;;;;;;;;5131683;27;20489;-72
2024/02/27 12:34:35;;;;;;;10.87;10.07;;;;;;;;;;5134675;27;21124;-77
2024/02/27 12:37:04;;;;;;;8.20;7.50;;;;;;;;;;5153086;27;20457;-77
2024/02/27 12:39:32;;;;;;;7.73;7.03;;;;;;;;;;5134300;27;20524;-77
2024/02/27 12:41:58;;;;;;;3.77;3.67;;;;;;;;;;5150715;27;20543;-77
2024/02/27 12:44:26;;;;;;;12.00;5.57;;;;;;;;;;5152597;27;20524;-74
2024/02/27 12:46:52;;;;;;;6.23;5.83;;;;;;;;;;5153306;27;20457;-72
2024/02/27 12:49:20;;;;;;;5.70;5.27;;;;;;;;;;5146760;27;20484;-76
2024/02/27 12:51:47;;;;;;;7.73;7.10;;;;;;;;;;5148567;27;20459;-74
2024/02/27 12:54:14;;;;;;;13.57;9.77;;;;;;;;;;5141290;27;20473;-74
2024/02/27 12:56:41;;;;;;;3.93;3.73;;;;;;;;;;5143117;27;20521;-78
2024/02/27 12:59:09;;;;;;;6.00;5.67;;;;;;;;;;5148026;27;20479;-77
2024/02/27 13:01:39;;;;;;;7.20;6.60;;;;;;;;;;5141386;27;20456;-77
2024/02/27 13:04:07;;;;;;;4.30;4.10;;;;;;;;;;5157794;27;20456;-78
2024/02/27 13:06:33;;;;;;;4.57;4.27;;;;;;;;;;5149517;27;20484;-75
2024/02/27 13:09:00;;;;;;;13.73;8.50;;;;;;;;;;5137884;27;21184;-77
2024/02/27 13:11:27;;;;;;;8.77;5.83;;;;;;;;;;5141864;27;20488;-77
2024/02/27 13:13:55;;;;;;;4.27;4.07;;;;;;;;;;5147296;27;20966;-76
2024/02/27 13:16:21;;;;;;;4.07;3.87;;;;;;;;;;5149088;27;20541;-73
2024/02/27 13:18:48;;;;;;;10.20;9.30;;;;;;;;;;5130940;27;20884;-74
2024/02/27 13:21:17;;;;;;;4.60;4.40;;;;;;;;;;5141173;27;20456;-74
2024/02/27 13:23:44;;;;;;;12.17;11.07;;;;;;;;;;5136130;27;20607;-78
2024/02/27 13:26:10;;;;;;;4.13;3.83;;;;;;;;;;5129081;27;20541;-76
2024/02/27 13:28:37;;;;;;;3.90;3.60;;;;;;;;;;5147215;27;20449;-73
2024/02/27 13:31:04;;;;;;;6.20;5.70;;;;;;;;;;5139607;27;20525;-74
2024/02/27 13:33:31;;;;;;;6.33;5.93;;;;;;;;;;5139258;27;21019;-76
2024/02/27 13:35:59;;;;;;;4.30;4.07;;;;;;;;;;5137988;27;20554;-76
2024/02/27 13:38:25;;;;;;;7.10;6.50;;;;;;;;;;5137313;27;20449;-78
2024/02/27 13:40:52;;;;;;;8.40;7.50;;;;;;;;;;5137907;27;20521;-76
2024/02/27 13:43:18;;;;;;;7.30;6.77;;;;;;;;;;5133020;27;20548;-76
2024/02/27 13:45:45;;;;;;;4.30;4.10;;;;;;;;;;5146632;27;20476;-74
2024/02/27 13:48:12;;;;;;;8.33;7.63;;;;;;;;;;5142581;27;20909;-77
2024/02/27 13:50:39;;;;;;;5.73;5.43;;;;;;;;;;5144924;27;20544;-77
2024/02/27 13:53:06;;;;;;;5.30;5.00;;;;;;;;;;5144899;27;20485;-76
2024/02/27 13:55:32;;;;;;;4.10;4.00;;;;;;;;;;5145249;27;20485;-74
2024/02/27 13:57:59;;;;;;;4.87;4.67;;;;;;;;;;5139332;27;20501;-77
2024/02/27 14:00:25;;;;;;;4.40;4.20;;;;;;;;;;5152987;27;20536;-78
2024/02/27 14:02:51;;;;;;;8.47;7.40;;;;;;;;;;5139299;27;20961;-78
2024/02/27 14:05:19;;;;;;;9.83;9.03;;;;;;;;;;5140713;27;20505;-72
2024/02/27 14:07:46;;;;;;;8.03;7.33;;;;;;;;;;5149432;27;20502;-78
2024/02/27 14:10:11;;;;;;;11.83;8.47;;;;;;;;;;5138797;27;21081;-76
2024/02/27 14:12:38;;;;;;;7.50;7.00;;;;;;;;;;5137436;27;20473;-76
2024/02/27 14:15:05;;;;;;;4.10;3.90;;;;;;;;;;5139247;27;20231;-77
2024/02/27 14:17:31;;;;;;;10.30;8.70;;;;;;;;;;5139055;27;20515;-75
2024/02/27 14:19:57;;;;;;;8.90;8.20;;;;;;;;;;5136474;27;20549;-75
2024/02/27 14:22:27;;;;;;;7.40;6.90;;;;;;;;;;5137178;27;21369;-78
2024/02/27 14:24:53;;;;;;;4.13;4.00;;;;;;;;;;5140133;27;20466;-77
2024/02/27 14:27:20;;;;;;;4.67;4.47;;;;;;;;;;5153971;27;20498;-77
2024/02/27 14:29:46;;;;;;;4.90;4.70;;;;;;;;;;5141263;27;20457;-77
2024/02/27 14:32:13;;;;;;;5.20;5.00;;;;;;;;;;5151679;27;20954;-78
2024/02/27 14:34:39;;;;;;;6.87;6.30;;;;;;;;;;5146032;27;20453;-77
2024/02/27 14:37:06;;;;;;;5.27;4.97;;;;;;;;;;5138508;27;20475;-78
2024/02/27 14:39:34;;;;;;;3.50;3.40;;;;;;;;;;5139718;27;20571;-75